createdAt,value
2018-04-01T00:01:33.343Z,99685.12
2018-04-01T00:04:00.788Z,99684.80
2018-04-01T00:06:28.550Z,99691.09
2018-04-01T00:08:56.000Z,99687.41
2018-04-01T00:11:23.444Z,99694.53
2018-04-01T00:13:50.906Z,99687.88
2018-04-01T00:16:18.350Z,99692.42
2018-04-01T00:18:45.794Z,99694.00
2018-04-01T00:21:16.992Z,99681.51
2018-04-01T00:23:44.444Z,99684.25
2018-04-01T00:26:11.891Z,99687.30
2018-04-01T00:28:39.343Z,99689.45
2018-04-01T00:31:06.796Z,99690.09
2018-04-01T00:33:34.252Z,99692.47
2018-04-01T00:36:01.718Z,99689.34
2018-04-01T00:38:29.161Z,99696.81
2018-04-01T00:40:56.619Z,99691.97
2018-04-01T00:43:24.069Z,99696.95
2018-04-01T00:45:51.522Z,99700.37
2018-04-01T00:48:18.976Z,99703.70
2018-04-01T00:50:46.434Z,99709.89
2018-04-01T00:53:13.883Z,99698.19
2018-04-01T00:55:41.336Z,99705.33
2018-04-01T00:58:08.784Z,99705.04
2018-04-01T01:00:36.243Z,99708.30
2018-04-01T01:03:03.687Z,99710.08
2018-04-01T01:05:31.147Z,99703.84
2018-04-01T01:07:58.591Z,99699.53
2018-04-01T01:10:26.036Z,99695.11
2018-04-01T01:12:53.492Z,99697.20
2018-04-01T01:15:20.948Z,99692.18
2018-04-01T01:17:48.396Z,99693.95
2018-04-01T01:20:15.840Z,99703.20
2018-04-01T01:22:43.408Z,99701.30
2018-04-01T01:25:10.815Z,99701.56
2018-04-01T01:27:38.268Z,99706.53
2018-04-01T01:30:05.709Z,99707.78
2018-04-01T01:32:33.159Z,99713.98
2018-04-01T01:35:00.604Z,99708.72
2018-04-01T01:37:28.046Z,99719.05
2018-04-01T01:39:55.499Z,99722.11
2018-04-01T01:42:22.944Z,99725.80
2018-04-01T01:44:50.397Z,99726.09
2018-04-01T01:47:17.847Z,99722.59
2018-04-01T01:49:45.297Z,99722.99
2018-04-01T01:52:12.747Z,99728.73
2018-04-01T01:54:40.195Z,99735.50
2018-04-01T01:57:07.640Z,99737.69
2018-04-01T01:59:35.112Z,99744.81
2018-04-01T02:02:02.551Z,99745.05
2018-04-01T02:04:30.016Z,99741.94
2018-04-01T02:06:57.463Z,99738.95
2018-04-01T02:09:24.904Z,99737.59
2018-04-01T02:11:52.355Z,99736.45
2018-04-01T02:14:19.796Z,99740.17
2018-04-01T02:16:47.260Z,99748.83
2018-04-01T02:19:14.692Z,99735.31
2018-04-01T02:21:42.247Z,99737.47
2018-04-01T02:24:09.691Z,99741.14
2018-04-01T02:26:37.143Z,99736.95
2018-04-01T02:29:04.592Z,99734.88
2018-04-01T02:31:32.137Z,99735.25
2018-04-01T02:33:59.503Z,99736.52
2018-04-01T02:36:26.975Z,99733.90
2018-04-01T02:38:54.416Z,99738.67
2018-04-01T02:41:21.856Z,99733.84
2018-04-01T02:43:49.305Z,99732.04
2018-04-01T02:46:16.765Z,99733.84
2018-04-01T02:48:44.198Z,99731.44
2018-04-01T02:51:11.644Z,99731.65
2018-04-01T02:53:39.097Z,99731.65
2018-04-01T02:56:06.543Z,99728.66
2018-04-01T02:58:33.996Z,99727.52
2018-04-01T03:01:01.444Z,99735.00
2018-04-01T03:03:28.908Z,99731.80
2018-04-01T03:05:56.343Z,99727.95
2018-04-01T03:08:23.825Z,99737.05
2018-04-01T03:10:51.256Z,99727.77
2018-04-01T03:13:18.700Z,99725.33
2018-04-01T03:15:46.165Z,99725.80
2018-04-01T03:18:13.623Z,99728.19
2018-04-01T03:20:41.078Z,99737.06
2018-04-01T03:23:08.528Z,99739.38
2018-04-01T03:25:35.984Z,99731.97
2018-04-01T03:28:03.424Z,99738.71
2018-04-01T03:30:30.876Z,99734.95
2018-04-01T03:32:58.320Z,99733.95
2018-04-01T03:35:25.773Z,99731.41
2018-04-01T03:37:53.212Z,99738.14
2018-04-01T03:40:20.647Z,99733.14
2018-04-01T03:42:48.107Z,99740.00
2018-04-01T03:45:15.573Z,99741.81
2018-04-01T03:47:43.025Z,99744.11
2018-04-01T03:50:10.464Z,99746.36
2018-04-01T03:52:37.921Z,99749.85
2018-04-01T03:55:05.359Z,99742.03
2018-04-01T03:57:32.819Z,99747.42
2018-04-01T04:00:00.268Z,99749.66
2018-04-01T04:02:27.712Z,99747.63
2018-04-01T04:04:55.157Z,99750.41
2018-04-01T04:07:22.612Z,99753.70
2018-04-01T04:09:50.055Z,99754.41
2018-04-01T04:12:17.500Z,99761.24
2018-04-01T04:14:44.947Z,99763.98
2018-04-01T04:17:12.391Z,99766.14
2018-04-01T04:19:39.847Z,99767.76
2018-04-01T04:22:07.291Z,99768.00
2018-04-01T04:24:34.747Z,99767.01
2018-04-01T04:27:02.191Z,99765.09
2018-04-01T04:29:31.631Z,99772.12
2018-04-01T04:31:59.085Z,99769.48
2018-04-01T04:34:26.531Z,99773.92
2018-04-01T04:36:53.968Z,99767.99
2018-04-01T04:39:21.429Z,99774.08
2018-04-01T04:41:48.876Z,99786.72
2018-04-01T04:44:16.319Z,99788.37
2018-04-01T04:46:43.790Z,99781.97
2018-04-01T04:49:11.211Z,99791.15
2018-04-01T04:51:38.660Z,99787.55
2018-04-01T04:54:06.099Z,99789.89
2018-04-01T04:56:33.545Z,99787.27
2018-04-01T04:59:01.004Z,99793.31
2018-04-01T05:01:28.459Z,99791.86
2018-04-01T05:03:55.907Z,99794.06
2018-04-01T05:06:23.359Z,99797.66
2018-04-01T05:08:50.804Z,99803.84
2018-04-01T05:11:18.255Z,99797.30
2018-04-01T05:13:45.704Z,99796.37
2018-04-01T05:16:13.140Z,99800.97
2018-04-01T05:18:40.595Z,99797.48
2018-04-01T05:21:08.035Z,99806.98
2018-04-01T05:23:35.491Z,99812.63
2018-04-01T05:26:02.930Z,99817.63
2018-04-01T05:28:30.393Z,99827.24
2018-04-01T05:30:57.823Z,99823.39
2018-04-01T05:33:25.288Z,99828.86
2018-04-01T05:35:52.720Z,99828.34
2018-04-01T05:38:20.164Z,99833.57
2018-04-01T05:40:47.631Z,99837.38
2018-04-01T05:43:15.076Z,99834.40
2018-04-01T05:45:42.531Z,99840.44
2018-04-01T05:48:09.993Z,99842.72
2018-04-01T05:50:37.435Z,99839.69
2018-04-01T05:53:04.894Z,99842.56
2018-04-01T05:55:32.339Z,99843.83
2018-04-01T05:57:59.787Z,99844.69
2018-04-01T06:00:27.244Z,99846.34
2018-04-01T06:02:54.687Z,99842.03
2018-04-01T06:05:22.128Z,99854.30
2018-04-01T06:07:49.577Z,99859.09
2018-04-01T06:10:17.019Z,99858.52
2018-04-01T06:12:44.477Z,99860.12
2018-04-01T06:15:11.920Z,99865.22
2018-04-01T06:17:39.375Z,99861.89
2018-04-01T06:20:06.828Z,99861.73
2018-04-01T06:22:34.285Z,99864.95
2018-04-01T06:25:01.731Z,99860.78
2018-04-01T06:27:29.187Z,99865.03
2018-04-01T06:29:56.635Z,99866.88
2018-04-01T06:32:24.099Z,99865.00
2018-04-01T06:34:51.549Z,99869.25
2018-04-01T06:37:19.013Z,99870.20
2018-04-01T06:39:46.463Z,99866.66
2018-04-01T06:42:13.923Z,99869.72
2018-04-01T06:44:41.371Z,99878.88
2018-04-01T06:47:08.829Z,99883.56
2018-04-01T06:49:36.292Z,99888.97
2018-04-01T06:52:03.740Z,99885.03
2018-04-01T06:54:31.201Z,99891.81
2018-04-01T06:56:58.683Z,99897.17
2018-04-01T06:59:26.131Z,99895.75
2018-04-01T07:01:53.575Z,99902.00
2018-04-01T07:04:21.036Z,99907.30
2018-04-01T07:06:48.478Z,99906.39
2018-04-01T07:09:15.939Z,99916.11
2018-04-01T07:11:43.391Z,99915.20
2018-04-01T07:14:10.847Z,99911.98
2018-04-01T07:16:38.303Z,99917.80
2018-04-01T07:19:05.776Z,99916.92
2018-04-01T07:21:33.223Z,99912.61
2018-04-01T07:24:00.680Z,99914.89
2018-04-01T07:26:28.143Z,99915.47
2018-04-01T07:28:55.603Z,99914.12
2018-04-01T07:31:23.061Z,99923.16
2018-04-01T07:33:50.512Z,99920.05
2018-04-01T07:36:18.022Z,99918.02
2018-04-01T07:38:45.429Z,99921.84
2018-04-01T07:41:12.928Z,99925.34
2018-04-01T07:43:40.371Z,99937.31
2018-04-01T07:46:07.826Z,99933.98
2018-04-01T07:48:35.278Z,99931.52
2018-04-01T07:51:02.730Z,99948.67
2018-04-01T07:53:30.189Z,99971.67
2018-04-01T07:55:57.658Z,99993.63
2018-04-01T07:58:25.114Z,99994.48
2018-04-01T08:00:52.562Z,100001.03
2018-04-01T08:03:20.016Z,100001.58
2018-04-01T08:05:47.472Z,100009.45
2018-04-01T08:08:14.923Z,100015.55
2018-04-01T08:10:42.372Z,100024.80
2018-04-01T08:13:09.847Z,100026.94
2018-04-01T08:15:37.288Z,100028.95
2018-04-01T08:18:04.769Z,100027.32
2018-04-01T08:20:32.212Z,100031.42
2018-04-01T08:22:59.656Z,100037.52
2018-04-01T08:25:27.143Z,100035.50
2018-04-01T08:27:54.575Z,100035.81
2018-04-01T08:30:22.036Z,100039.45
2018-04-01T08:32:49.488Z,100040.23
2018-04-01T08:35:16.946Z,100040.03
2018-04-01T08:37:44.389Z,100043.23
2018-04-01T08:40:11.859Z,100051.41
2018-04-01T08:42:39.313Z,100040.76
2018-04-01T08:45:06.768Z,100046.24
2018-04-01T08:47:34.219Z,100045.30
2018-04-01T08:50:01.688Z,100052.84
2018-04-01T08:52:29.144Z,100051.94
2018-04-01T08:54:56.603Z,100056.66
2018-04-01T08:57:24.068Z,100054.85
2018-04-01T08:59:51.538Z,100060.33
2018-04-01T09:02:18.993Z,100065.34
2018-04-01T09:04:46.445Z,100074.50
2018-04-01T09:07:13.908Z,100068.17
2018-04-01T09:09:41.368Z,100075.09
2018-04-01T09:12:08.824Z,100076.12
2018-04-01T09:14:36.275Z,100073.73
2018-04-01T09:17:03.747Z,100080.08
2018-04-01T09:19:31.195Z,100083.34
2018-04-01T09:21:58.655Z,100092.97
2018-04-01T09:24:26.167Z,100087.84
2018-04-01T09:26:53.580Z,100090.33
2018-04-01T09:29:21.039Z,100088.18
2018-04-01T09:31:48.495Z,100090.83
2018-04-01T09:34:15.963Z,100086.07
2018-04-01T09:36:43.423Z,100094.05
2018-04-01T09:39:10.895Z,100094.89
2018-04-01T09:41:38.351Z,100101.34
2018-04-01T09:44:05.875Z,100099.33
2018-04-01T09:46:33.283Z,100106.28
2018-04-01T09:49:00.744Z,100106.30
2018-04-01T09:51:28.199Z,100114.45
2018-04-01T09:53:55.663Z,100113.94
2018-04-01T09:56:23.119Z,100113.28
2018-04-01T09:58:50.591Z,100110.55
2018-04-01T10:01:18.595Z,100115.20
2018-04-01T10:03:46.598Z,100121.55
2018-04-01T10:06:14.604Z,100117.41
2018-04-01T10:08:42.937Z,100125.66
2018-04-01T10:11:11.183Z,100128.98
2018-04-01T10:13:39.456Z,100128.95
2018-04-01T10:16:07.739Z,100140.69
2018-04-01T10:18:36.027Z,100144.95
2018-04-01T10:21:04.319Z,100147.95
2018-04-01T10:23:32.609Z,100147.36
2018-04-01T10:26:00.899Z,100151.67
2018-04-01T10:28:29.184Z,100151.28
2018-04-01T10:30:57.567Z,100157.88
2018-04-01T10:33:25.843Z,100161.19
2018-04-01T10:35:54.139Z,100170.16
2018-04-01T10:38:22.427Z,100172.02
2018-04-01T10:40:50.720Z,100189.35
2018-04-01T10:43:19.064Z,100184.21
2018-04-01T10:45:47.284Z,100188.04
2018-04-01T10:48:15.654Z,100191.12
2018-04-01T10:50:43.902Z,100198.84
2018-04-01T10:53:12.199Z,100199.64
2018-04-01T10:55:40.864Z,100203.64
2018-04-01T10:58:08.351Z,100197.98
2018-04-01T11:00:35.806Z,100207.13
2018-04-01T11:03:03.262Z,100201.55
2018-04-01T11:05:30.720Z,100209.30
2018-04-01T11:07:58.192Z,100215.78
2018-04-01T11:10:25.663Z,100212.27
2018-04-01T11:12:53.126Z,100214.05
2018-04-01T11:15:20.587Z,100217.03
2018-04-01T11:17:48.059Z,100221.44
2018-04-01T11:20:15.516Z,100226.61
2018-04-01T11:22:42.988Z,100227.92
2018-04-01T11:25:10.451Z,100231.69
2018-04-01T11:27:37.908Z,100228.19
2018-04-01T11:30:05.383Z,100227.36
2018-04-01T11:32:32.840Z,100230.23
2018-04-01T11:35:00.323Z,100225.42
2018-04-01T11:37:27.775Z,100236.19
2018-04-01T11:39:55.243Z,100231.41
2018-04-01T11:42:22.720Z,100237.97
2018-04-01T11:44:50.195Z,100247.95
2018-04-01T11:47:17.656Z,100250.22
2018-04-01T11:49:45.123Z,100254.54
2018-04-01T11:52:12.607Z,100257.00
2018-04-01T11:54:40.076Z,100259.75
2018-04-01T11:57:07.537Z,100258.49
2018-04-01T11:59:34.996Z,100254.06
2018-04-01T12:02:02.515Z,100256.19
2018-04-01T12:04:29.964Z,100254.25
2018-04-01T12:06:57.436Z,100257.60
2018-04-01T12:09:24.891Z,100261.37
2018-04-01T12:11:52.357Z,100254.17
2018-04-01T12:14:19.819Z,100263.63
2018-04-01T12:16:47.280Z,100262.72
2018-04-01T12:19:14.731Z,100265.00
2018-04-01T12:21:42.297Z,100265.39
2018-04-01T12:24:09.749Z,100270.98
2018-04-01T12:26:37.215Z,100289.68
2018-04-01T12:29:04.678Z,100295.38
2018-04-01T12:31:32.168Z,100296.70
2018-04-01T12:33:59.623Z,100307.08
2018-04-01T12:36:27.084Z,100309.68
2018-04-01T12:38:54.568Z,100311.47
2018-04-01T12:41:22.000Z,100320.55
2018-04-01T12:43:49.467Z,100321.40
2018-04-01T12:46:16.915Z,100323.05
2018-04-01T12:48:44.380Z,100328.66
2018-04-01T12:51:11.844Z,100332.05
2018-04-01T12:53:39.312Z,100331.22
2018-04-01T12:56:06.764Z,100334.72
2018-04-01T12:58:34.232Z,100333.06
2018-04-01T13:01:01.696Z,100334.27
2018-04-01T13:03:29.167Z,100344.23
2018-04-01T13:05:56.619Z,100342.92
2018-04-01T13:08:24.103Z,100336.52
2018-04-01T13:10:51.572Z,100343.84
2018-04-01T13:13:19.032Z,100343.39
2018-04-01T13:15:46.495Z,100345.98
2018-04-01T13:18:13.956Z,100343.34
2018-04-01T13:20:41.424Z,100348.09
2018-04-01T13:23:08.885Z,100352.37
2018-04-01T13:25:36.357Z,100349.31
2018-04-01T13:28:03.816Z,100349.76
2018-04-01T13:30:31.280Z,100354.47
2018-04-01T13:32:58.731Z,100354.08
2018-04-01T13:35:26.200Z,100355.37
2018-04-01T13:37:53.659Z,100365.17
2018-04-01T13:40:21.127Z,100356.10
2018-04-01T13:42:48.593Z,100360.66
2018-04-01T13:45:16.072Z,100358.31
2018-04-01T13:47:43.535Z,100352.92
2018-04-01T13:50:11.012Z,100354.83
2018-04-01T13:52:38.468Z,100357.95
2018-04-01T13:55:05.939Z,100347.30
2018-04-01T13:57:33.404Z,100355.20
2018-04-01T14:00:00.867Z,100354.90
2018-04-01T14:02:28.326Z,100362.43
2018-04-01T14:04:55.791Z,100364.08
2018-04-01T14:07:23.264Z,100371.50
2018-04-01T14:09:50.731Z,100365.84
2018-04-01T14:12:18.201Z,100368.69
2018-04-01T14:14:45.659Z,100362.64
2018-04-01T14:17:13.129Z,100367.33
2018-04-01T14:19:40.596Z,100367.84
2018-04-01T14:22:08.064Z,100374.03
2018-04-01T14:24:35.521Z,100371.43
2018-04-01T14:27:02.996Z,100371.17
2018-04-01T14:29:31.173Z,100377.86
2018-04-01T14:31:58.632Z,100375.12
2018-04-01T14:34:26.107Z,100373.52
2018-04-01T14:36:53.568Z,100383.41
2018-04-01T14:39:21.064Z,100390.08
2018-04-01T14:41:48.527Z,100381.78
2018-04-01T14:44:16.001Z,100388.61
2018-04-01T14:46:43.469Z,100391.16
2018-04-01T14:49:10.932Z,100393.22
2018-04-01T14:51:38.388Z,100393.66
2018-04-01T14:54:05.854Z,100393.20
2018-04-01T14:56:33.316Z,100388.17
2018-04-01T14:59:01.043Z,100392.33
2018-04-01T15:01:28.499Z,100393.66
2018-04-01T15:03:55.967Z,100389.28
2018-04-01T15:06:23.427Z,100383.73
2018-04-01T15:08:50.886Z,100390.72
2018-04-01T15:11:18.356Z,100387.23
2018-04-01T15:13:45.819Z,100383.97
2018-04-01T15:16:13.287Z,100392.87
2018-04-01T15:18:40.744Z,100389.30
2018-04-01T15:21:09.962Z,100389.59
2018-04-01T15:23:37.383Z,100388.12
2018-04-01T15:26:04.851Z,100393.81
2018-04-01T15:28:32.313Z,100392.38
2018-04-01T15:30:59.767Z,100396.03
2018-04-01T15:33:27.231Z,100397.88
2018-04-01T15:35:54.702Z,100393.66
2018-04-01T15:38:22.183Z,100406.75
2018-04-01T15:40:49.658Z,100407.66
2018-04-01T15:43:17.099Z,100406.08
2018-04-01T15:45:44.555Z,100415.20
2018-04-01T15:48:12.024Z,100422.59
2018-04-01T15:50:40.375Z,100428.52
2018-04-01T15:53:07.847Z,100443.86
2018-04-01T15:55:35.336Z,100440.00
2018-04-01T15:58:02.799Z,100442.66
2018-04-01T16:00:30.267Z,100459.52
2018-04-01T16:02:57.723Z,100466.45
2018-04-01T16:05:25.187Z,100464.30
2018-04-01T16:07:52.639Z,100479.41
2018-04-01T16:10:20.107Z,100475.09
2018-04-01T16:12:47.559Z,100486.75
2018-04-01T16:15:15.036Z,100488.93
2018-04-01T16:17:42.479Z,100502.30
2018-04-01T16:20:10.300Z,100494.09
2018-04-01T16:22:37.759Z,100501.02
2018-04-01T16:25:05.221Z,100502.30
2018-04-01T16:27:32.684Z,100504.91
2018-04-01T16:30:00.143Z,100501.45
2018-04-01T16:32:27.635Z,100509.22
2018-04-01T16:34:55.090Z,100519.17
2018-04-01T16:37:22.549Z,100520.87
2018-04-01T16:39:50.003Z,100523.92
2018-04-01T16:42:17.463Z,100531.27
2018-04-01T16:44:44.920Z,100527.39
2018-04-01T16:47:12.387Z,100525.23
2018-04-01T16:49:39.840Z,100529.11
2018-04-01T16:52:07.308Z,100538.16
2018-04-01T16:54:34.764Z,100532.98
2018-04-01T16:57:02.223Z,100536.91
2018-04-01T16:59:29.694Z,100529.52
2018-04-01T17:01:57.164Z,100533.00
2018-04-01T17:04:24.641Z,100540.77
2018-04-01T17:06:52.091Z,100547.25
2018-04-01T17:09:19.598Z,100549.39
2018-04-01T17:11:47.039Z,100552.41
2018-04-01T17:14:14.499Z,100551.98
2018-04-01T17:16:41.953Z,100564.48
2018-04-01T17:19:09.420Z,100563.23
2018-04-01T17:21:36.867Z,100564.11
2018-04-01T17:24:04.328Z,100566.68
2018-04-01T17:26:31.793Z,100567.08
2018-04-01T17:28:59.244Z,100578.23
2018-04-01T17:31:26.716Z,100579.17
2018-04-01T17:33:54.171Z,100589.95
2018-04-01T17:36:21.648Z,100590.41
2018-04-01T17:38:49.111Z,100589.96
2018-04-01T17:41:16.605Z,100598.42
2018-04-01T17:43:44.035Z,100595.41
2018-04-01T17:46:11.835Z,100604.87
2018-04-01T17:48:39.309Z,100601.36
2018-04-01T17:51:06.761Z,100605.30
2018-04-01T17:53:34.225Z,100604.02
2018-04-01T17:56:01.696Z,100609.03
2018-04-01T17:58:29.155Z,100614.80
2018-04-01T18:00:56.603Z,100612.06
2018-04-01T18:03:24.112Z,100608.36
2018-04-01T18:05:51.560Z,100611.48
2018-04-01T18:08:19.023Z,100618.83
2018-04-01T18:10:46.475Z,100613.27
2018-04-01T18:13:13.953Z,100626.16
2018-04-01T18:15:41.398Z,100626.17
2018-04-01T18:18:12.483Z,100625.73
2018-04-01T18:20:39.943Z,100630.92
2018-04-01T18:23:07.391Z,100634.77
2018-04-01T18:25:35.008Z,100639.17
2018-04-01T18:28:02.481Z,100639.14
2018-04-01T18:30:30.085Z,100641.33
2018-04-01T18:32:57.527Z,100640.52
2018-04-01T18:35:24.996Z,100660.80
2018-04-01T18:37:52.475Z,100669.86
2018-04-01T18:40:19.935Z,100659.08
2018-04-01T18:42:47.395Z,100661.31
2018-04-01T18:45:14.872Z,100666.42
2018-04-01T18:47:42.407Z,100663.34
2018-04-01T18:50:09.831Z,100665.14
2018-04-01T18:52:37.291Z,100675.50
2018-04-01T18:55:04.760Z,100675.48
2018-04-01T18:57:32.223Z,100669.09
2018-04-01T18:59:59.690Z,100675.54
2018-04-01T19:02:27.154Z,100687.95
2018-04-01T19:04:54.613Z,100686.70
2018-04-01T19:07:22.075Z,100690.17
2018-04-01T19:09:49.605Z,100694.06
2018-04-01T19:12:17.019Z,100693.66
2018-04-01T19:14:44.499Z,100694.52
2018-04-01T19:17:12.496Z,100700.60
2018-04-01T19:19:40.787Z,100704.87
2018-04-01T19:22:09.073Z,100710.48
2018-04-01T19:24:37.372Z,100708.18
2018-04-01T19:27:05.648Z,100706.98
2018-04-01T19:29:33.940Z,100704.77
2018-04-01T19:32:02.221Z,100705.73
2018-04-01T19:34:30.520Z,100709.64
2018-04-01T19:36:58.795Z,100716.59
2018-04-01T19:39:27.076Z,100715.29
2018-04-01T19:41:55.391Z,100716.60
2018-04-01T19:44:23.663Z,100719.63
2018-04-01T19:46:51.947Z,100723.80
2018-04-01T19:49:20.260Z,100722.56
2018-04-01T19:51:48.532Z,100718.69
2018-04-01T19:54:16.811Z,100724.64
2018-04-01T19:56:45.091Z,100722.84
2018-04-01T19:59:13.370Z,100728.94
2018-04-01T20:01:41.674Z,100724.55
2018-04-01T20:04:10.681Z,100729.80
2018-04-01T20:06:38.951Z,100731.07
2018-04-01T20:09:07.240Z,100729.66
2018-04-01T20:11:35.525Z,100727.56
2018-04-01T20:14:03.836Z,100731.02
2018-04-01T20:16:32.124Z,100733.60
2018-04-01T20:19:00.428Z,100736.48
2018-04-01T20:21:28.685Z,100734.25
2018-04-01T20:23:56.971Z,100735.34
2018-04-01T20:26:25.252Z,100738.45
2018-04-01T20:28:53.539Z,100737.82
2018-04-01T20:31:21.863Z,100732.75
2018-04-01T20:33:50.218Z,100732.84
2018-04-01T20:36:18.491Z,100734.17
2018-04-01T20:38:46.763Z,100739.35
2018-04-01T20:41:16.107Z,100738.27
2018-04-01T20:43:44.339Z,100742.89
2018-04-01T20:46:12.623Z,100742.08
2018-04-01T20:48:40.900Z,100746.86
2018-04-01T20:51:09.187Z,100746.02
2018-04-01T20:53:37.480Z,100747.38
2018-04-01T20:56:05.769Z,100749.98
2018-04-01T20:58:34.050Z,100747.25
2018-04-01T21:01:02.327Z,100740.45
2018-04-01T21:03:30.604Z,100748.23
2018-04-01T21:05:58.876Z,100745.66
2018-04-01T21:08:27.156Z,100745.70
2018-04-01T21:10:55.432Z,100749.06
2018-04-01T21:13:23.715Z,100747.45
2018-04-01T21:15:52.008Z,100749.66
2018-04-01T21:18:20.288Z,100744.50
2018-04-01T21:20:48.576Z,100745.78
2018-04-01T21:23:16.875Z,100750.44
2018-04-01T21:25:45.151Z,100750.16
2018-04-01T21:28:13.437Z,100751.93
2018-04-01T21:30:41.712Z,100752.72
2018-04-01T21:33:10.023Z,100755.33
2018-04-01T21:35:38.308Z,100752.31
2018-04-01T21:38:06.632Z,100755.83
2018-04-01T21:40:34.907Z,100750.23
2018-04-01T21:43:03.179Z,100751.16
2018-04-01T21:45:31.467Z,100758.85
2018-04-01T21:47:59.744Z,100761.92
2018-04-01T21:50:28.030Z,100759.36
2018-04-01T21:52:56.303Z,100751.55
2018-04-01T21:55:24.599Z,100754.63
2018-04-01T21:57:52.879Z,100754.23
2018-04-01T22:00:21.181Z,100758.09
2018-04-01T22:02:49.476Z,100758.55
2018-04-01T22:05:17.765Z,100751.63
2018-04-01T22:07:46.047Z,100755.48
2018-04-01T22:10:14.335Z,100751.53
2018-04-01T22:12:42.612Z,100749.83
2018-04-01T22:15:10.896Z,100746.34
2018-04-01T22:17:39.185Z,100747.65
2018-04-01T22:20:07.462Z,100745.53
2018-04-01T22:22:47.642Z,100745.53
2018-04-01T22:25:15.912Z,100743.34
2018-04-01T22:27:44.195Z,100737.34
2018-04-01T22:30:12.472Z,100739.06
2018-04-01T22:32:40.764Z,100741.28
2018-04-01T22:35:09.043Z,100739.97
2018-04-01T22:37:37.336Z,100741.24
2018-04-01T22:40:05.613Z,100739.95
2018-04-01T22:42:33.904Z,100745.39
2018-04-01T22:45:02.180Z,100747.62
2018-04-01T22:47:30.475Z,100739.88
2018-04-01T22:49:58.775Z,100736.43
2018-04-01T22:52:27.056Z,100738.61
2018-04-01T22:54:55.338Z,100726.55
2018-04-01T22:57:23.608Z,100730.86
2018-04-01T22:59:51.887Z,100733.44
2018-04-01T23:02:20.167Z,100739.92
2018-04-01T23:04:48.451Z,100732.15
2018-04-01T23:07:16.723Z,100732.98
2018-04-01T23:09:45.003Z,100724.80
2018-04-01T23:12:13.272Z,100728.66
2018-04-01T23:14:41.581Z,100721.72
2018-04-01T23:17:09.900Z,100726.90
2018-04-01T23:19:38.179Z,100723.45
2018-04-01T23:22:06.463Z,100726.43
2018-04-01T23:24:34.747Z,100720.37
2018-04-01T23:27:03.023Z,100718.64
2018-04-01T23:29:31.306Z,100716.89
2018-04-01T23:31:59.583Z,100717.34
2018-04-01T23:34:27.856Z,100716.91
2018-04-01T23:36:56.144Z,100716.50
2018-04-01T23:39:24.415Z,100711.74
2018-04-01T23:41:52.700Z,100717.72
2018-04-01T23:44:20.972Z,100717.70
2018-04-01T23:46:49.259Z,100714.20
2018-04-01T23:49:17.536Z,100719.42
2018-04-01T23:51:45.819Z,100708.58
2018-04-01T23:54:14.085Z,100712.52
2018-04-01T23:56:42.684Z,100706.44
2018-04-01T23:59:10.986Z,100704.25
